sensor_id;sensor_type;location;lat;lon;timestamp;pressure;altitude;pressure_sealevel;temperature;humidity
52735;BME280;38631;47.572;10.704;2022-11-20T00:01:39;92011.28;;;3.28;100.00
52735;BME280;38631;47.572;10.704;2022-11-20T00:04:05;92003.50;;;3.12;100.00
52735;BME280;38631;47.572;10.704;2022-11-20T00:06:30;92006.31;;;3.26;100.00
52735;BME280;38631;47.572;10.704;2022-11-20T00:08:57;92011.41;;;3.46;100.00
52735;BME280;38631;47.572;10.704;2022-11-20T00:11:25;92015.41;;;3.39;100.00
52735;BME280;38631;47.572;10.704;2022-11-20T00:13:52;92001.91;;;3.16;100.00
52735;BME280;38631;47.572;10.704;2022-11-20T00:16:21;92011.75;;;3.35;100.00
52735;BME280;38631;47.572;10.704;2022-11-20T00:18:47;92009.81;;;3.11;100.00
52735;BME280;38631;47.572;10.704;2022-11-20T00:23:42;92015.44;;;3.34;100.00
52735;BME280;38631;47.572;10.704;2022-11-20T00:26:10;92016.53;;;3.22;100.00
52735;BME280;38631;47.572;10.704;2022-11-20T00:28:36;92016.88;;;3.11;100.00
52735;BME280;38631;47.572;10.704;2022-11-20T00:31:07;92027.03;;;3.22;100.00
52735;BME280;38631;47.572;10.704;2022-11-20T00:33:33;92023.56;;;3.32;100.00
52735;BME280;38631;47.572;10.704;2022-11-20T00:36:07;92023.59;;;3.27;100.00
52735;BME280;38631;47.572;10.704;2022-11-20T00:38:33;92020.13;;;3.37;100.00
52735;BME280;38631;47.572;10.704;2022-11-20T00:41:01;92019.66;;;3.30;100.00
52735;BME280;38631;47.572;10.704;2022-11-20T00:43:27;92023.53;;;3.37;100.00
52735;BME280;38631;47.572;10.704;2022-11-20T00:45:59;92027.41;;;3.45;100.00
52735;BME280;38631;47.572;10.704;2022-11-20T00:48:25;92031.22;;;3.23;100.00
52735;BME280;38631;47.572;10.704;2022-11-20T00:50:50;92026.22;;;3.27;100.00
52735;BME280;38631;47.572;10.704;2022-11-20T00:53:16;92034.63;;;3.29;100.00
52735;BME280;38631;47.572;10.704;2022-11-20T00:55:41;92031.66;;;3.36;100.00
52735;BME280;38631;47.572;10.704;2022-11-20T00:58:06;92035.34;;;3.40;100.00
52735;BME280;38631;47.572;10.704;2022-11-20T01:00:32;92028.09;;;3.21;100.00
52735;BME280;38631;47.572;10.704;2022-11-20T01:02:57;92037.53;;;3.22;100.00
52735;BME280;38631;47.572;10.704;2022-11-20T01:05:22;92039.84;;;3.34;100.00
52735;BME280;38631;47.572;10.704;2022-11-20T01:07:48;92037.47;;;3.33;100.00
52735;BME280;38631;47.572;10.704;2022-11-20T01:10:13;92043.25;;;3.35;100.00
52735;BME280;38631;47.572;10.704;2022-11-20T01:12:38;92040.00;;;3.09;100.00
52735;BME280;38631;47.572;10.704;2022-11-20T01:15:04;92041.78;;;3.13;100.00
52735;BME280;38631;47.572;10.704;2022-11-20T01:17:31;92044.19;;;3.05;100.00
52735;BME280;38631;47.572;10.704;2022-11-20T01:19:56;92039.19;;;3.08;100.00
52735;BME280;38631;47.572;10.704;2022-11-20T01:22:22;92043.09;;;3.11;100.00
52735;BME280;38631;47.572;10.704;2022-11-20T01:24:47;92035.88;;;2.92;100.00
52735;BME280;38631;47.572;10.704;2022-11-20T01:27:13;92048.91;;;3.02;100.00
52735;BME280;38631;47.572;10.704;2022-11-20T01:29:38;92048.53;;;3.24;100.00
52735;BME280;38631;47.572;10.704;2022-11-20T01:32:04;92048.81;;;3.23;100.00
52735;BME280;38631;47.572;10.704;2022-11-20T01:34:29;92054.09;;;3.18;100.00
52735;BME280;38631;47.572;10.704;2022-11-20T01:36:54;92052.31;;;3.03;100.00
52735;BME280;38631;47.572;10.704;2022-11-20T01:39:23;92058.31;;;3.14;100.00
52735;BME280;38631;47.572;10.704;2022-11-20T01:41:50;92057.25;;;3.15;100.00
52735;BME280;38631;47.572;10.704;2022-11-20T01:44:57;92060.13;;;3.13;100.00
52735;BME280;38631;47.572;10.704;2022-11-20T01:47:43;92063.75;;;3.28;100.00
52735;BME280;38631;47.572;10.704;2022-11-20T01:50:23;92068.22;;;3.27;100.00
52735;BME280;38631;47.572;10.704;2022-11-20T01:52:56;92074.25;;;3.22;100.00
52735;BME280;38631;47.572;10.704;2022-11-20T01:55:29;92067.69;;;3.25;100.00
52735;BME280;38631;47.572;10.704;2022-11-20T01:57:55;92071.63;;;3.28;100.00
52735;BME280;38631;47.572;10.704;2022-11-20T02:00:21;92071.03;;;3.36;100.00
52735;BME280;38631;47.572;10.704;2022-11-20T02:02:58;92074.97;;;3.33;100.00
52735;BME280;38631;47.572;10.704;2022-11-20T02:05:30;92064.81;;;3.27;100.00
52735;BME280;38631;47.572;10.704;2022-11-20T02:07:58;92064.03;;;3.26;100.00
52735;BME280;38631;47.572;10.704;2022-11-20T02:10:26;92068.56;;;3.10;100.00
52735;BME280;38631;47.572;10.704;2022-11-20T02:12:52;92062.53;;;3.10;100.00
52735;BME280;38631;47.572;10.704;2022-11-20T02:15:36;92061.22;;;3.12;100.00
52735;BME280;38631;47.572;10.704;2022-11-20T02:18:01;92069.91;;;3.02;100.00
52735;BME280;38631;47.572;10.704;2022-11-20T02:20:27;92063.63;;;2.93;100.00
52735;BME280;38631;47.572;10.704;2022-11-20T02:22:59;92068.34;;;3.01;100.00
52735;BME280;38631;47.572;10.704;2022-11-20T02:25:29;92065.97;;;3.00;100.00
52735;BME280;38631;47.572;10.704;2022-11-20T02:27:57;92067.50;;;3.11;100.00
52735;BME280;38631;47.572;10.704;2022-11-20T02:30:22;92068.03;;;3.08;100.00
52735;BME280;38631;47.572;10.704;2022-11-20T02:32:48;92067.56;;;2.96;100.00
52735;BME280;38631;47.572;10.704;2022-11-20T02:37:45;92067.84;;;2.94;100.00
52735;BME280;38631;47.572;10.704;2022-11-20T02:40:13;92064.41;;;3.04;100.00
52735;BME280;38631;47.572;10.704;2022-11-20T02:42:38;92058.91;;;2.95;100.00
52735;BME280;38631;47.572;10.704;2022-11-20T02:45:04;92058.91;;;2.95;100.00
52735;BME280;38631;47.572;10.704;2022-11-20T02:47:30;92061.03;;;2.93;100.00
52735;BME280;38631;47.572;10.704;2022-11-20T02:49:56;92058.94;;;2.90;100.00
52735;BME280;38631;47.572;10.704;2022-11-20T02:52:21;92061.63;;;2.75;100.00
52735;BME280;38631;47.572;10.704;2022-11-20T02:54:47;92058.44;;;2.83;100.00
52735;BME280;38631;47.572;10.704;2022-11-20T02:57:12;92059.00;;;2.75;100.00
52735;BME280;38631;47.572;10.704;2022-11-20T02:59:37;92055.59;;;2.79;100.00
52735;BME280;38631;47.572;10.704;2022-11-20T03:02:03;92050.00;;;2.96;100.00
52735;BME280;38631;47.572;10.704;2022-11-20T03:04:28;92053.91;;;3.04;100.00
52735;BME280;38631;47.572;10.704;2022-11-20T03:06:53;92054.44;;;2.96;100.00
52735;BME280;38631;47.572;10.704;2022-11-20T03:09:20;92061.53;;;2.95;100.00
52735;BME280;38631;47.572;10.704;2022-11-20T03:11:45;92065.97;;;3.00;100.00
52735;BME280;38631;47.572;10.704;2022-11-20T03:14:10;92061.25;;;3.02;100.00
52735;BME280;38631;47.572;10.704;2022-11-20T03:16:36;92072.28;;;3.04;100.00
52735;BME280;38631;47.572;10.704;2022-11-20T03:19:01;92051.28;;;3.04;100.00
52735;BME280;38631;47.572;10.704;2022-11-20T03:21:26;92055.53;;;2.90;100.00
52735;BME280;38631;47.572;10.704;2022-11-20T03:23:53;92058.72;;;2.81;100.00
52735;BME280;38631;47.572;10.704;2022-11-20T03:26:21;92051.47;;;2.53;100.00
52735;BME280;38631;47.572;10.704;2022-11-20T03:28:52;92051.38;;;2.84;100.00
52735;BME280;38631;47.572;10.704;2022-11-20T03:31:24;92049.22;;;3.01;100.00
52735;BME280;38631;47.572;10.704;2022-11-20T03:33:50;92058.13;;;3.00;100.00
52735;BME280;38631;47.572;10.704;2022-11-20T03:36:16;92058.66;;;2.97;100.00
52735;BME280;38631;47.572;10.704;2022-11-20T03:38:43;92055.97;;;3.07;100.00
52735;BME280;38631;47.572;10.704;2022-11-20T03:41:11;92061.53;;;2.95;100.00
52735;BME280;38631;47.572;10.704;2022-11-20T03:43:37;92066.91;;;2.70;100.00
52735;BME280;38631;47.572;10.704;2022-11-20T03:46:03;92068.72;;;2.74;100.00
52735;BME280;38631;47.572;10.704;2022-11-20T03:48:28;92068.97;;;2.73;100.00
52735;BME280;38631;47.572;10.704;2022-11-20T03:51:10;92069.25;;;2.76;100.00
52735;BME280;38631;47.572;10.704;2022-11-20T03:53:36;92071.03;;;2.86;100.00
52735;BME280;38631;47.572;10.704;2022-11-20T03:56:02;92062.06;;;2.97;99.82
52735;BME280;38631;47.572;10.704;2022-11-20T03:58:27;92060.75;;;2.95;99.09
52735;BME280;38631;47.572;10.704;2022-11-20T04:00:52;92061.31;;;2.92;99.27
52735;BME280;38631;47.572;10.704;2022-11-20T04:03:18;92072.38;;;2.73;100.00
52735;BME280;38631;47.572;10.704;2022-11-20T04:05:43;92065.13;;;2.45;100.00
52735;BME280;38631;47.572;10.704;2022-11-20T04:08:08;92071.72;;;2.27;100.00
52735;BME280;38631;47.572;10.704;2022-11-20T04:10:34;92063.06;;;2.36;100.00
52735;BME280;38631;47.572;10.704;2022-11-20T04:12:59;92062.31;;;2.21;100.00
52735;BME280;38631;47.572;10.704;2022-11-20T04:15:25;92059.91;;;2.40;100.00
52735;BME280;38631;47.572;10.704;2022-11-20T04:17:50;92058.56;;;2.52;100.00
52735;BME280;38631;47.572;10.704;2022-11-20T04:20:16;92065.63;;;2.57;100.00
52735;BME280;38631;47.572;10.704;2022-11-20T04:22:41;92057.97;;;2.66;100.00
52735;BME280;38631;47.572;10.704;2022-11-20T04:25:07;92068.44;;;2.71;100.00
52735;BME280;38631;47.572;10.704;2022-11-20T04:27:32;92058.59;;;2.42;100.00
52735;BME280;38631;47.572;10.704;2022-11-20T04:29:58;92054.91;;;2.43;100.00
52735;BME280;38631;47.572;10.704;2022-11-20T04:32:23;92059.63;;;2.51;100.00
52735;BME280;38631;47.572;10.704;2022-11-20T04:34:48;92062.22;;;2.62;100.00
52735;BME280;38631;47.572;10.704;2022-11-20T04:37:14;92065.56;;;2.72;100.00
52735;BME280;38631;47.572;10.704;2022-11-20T04:39:39;92071.56;;;2.78;100.00
52735;BME280;38631;47.572;10.704;2022-11-20T04:42:04;92067.66;;;2.75;100.00
52735;BME280;38631;47.572;10.704;2022-11-20T04:44:48;92058.50;;;2.68;100.00
52735;BME280;38631;47.572;10.704;2022-11-20T04:47:14;92066.69;;;2.56;100.00
52735;BME280;38631;47.572;10.704;2022-11-20T04:49:39;92063.81;;;2.47;100.00
52735;BME280;38631;47.572;10.704;2022-11-20T04:52:04;92070.34;;;2.60;100.00
52735;BME280;38631;47.572;10.704;2022-11-20T04:54:30;92071.88;;;2.71;100.00
52735;BME280;38631;47.572;10.704;2022-11-20T04:56:55;92074.53;;;2.61;100.00
52735;BME280;38631;47.572;10.704;2022-11-20T04:59:20;92072.78;;;2.36;100.00
52735;BME280;38631;47.572;10.704;2022-11-20T05:01:46;92081.13;;;2.43;100.00
52735;BME280;38631;47.572;10.704;2022-11-20T05:04:11;92079.53;;;2.52;100.00
52735;BME280;38631;47.572;10.704;2022-11-20T05:06:36;92079.78;;;2.61;100.00
52735;BME280;38631;47.572;10.704;2022-11-20T05:09:02;92079.03;;;2.45;100.00
52735;BME280;38631;47.572;10.704;2022-11-20T05:11:27;92076.13;;;2.57;100.00
52735;BME280;38631;47.572;10.704;2022-11-20T05:13:58;92075.00;;;2.68;100.00
52735;BME280;38631;47.572;10.704;2022-11-20T05:16:24;92070.94;;;2.36;100.00
52735;BME280;38631;47.572;10.704;2022-11-20T05:18:51;92086.94;;;2.20;100.00
52735;BME280;38631;47.572;10.704;2022-11-20T05:21:17;92082.69;;;2.49;100.00
52735;BME280;38631;47.572;10.704;2022-11-20T05:23:43;92080.56;;;2.62;100.00
52735;BME280;38631;47.572;10.704;2022-11-20T05:26:17;92082.97;;;2.32;100.00
52735;BME280;38631;47.572;10.704;2022-11-20T05:28:43;92087.38;;;2.57;100.00
52735;BME280;38631;47.572;10.704;2022-11-20T05:31:11;92091.59;;;2.53;100.00
52735;BME280;38631;47.572;10.704;2022-11-20T05:33:40;92090.31;;;2.30;100.00
52735;BME280;38631;47.572;10.704;2022-11-20T05:36:06;92091.66;;;2.07;100.00
52735;BME280;38631;47.572;10.704;2022-11-20T05:38:31;92087.44;;;2.32;100.00
52735;BME280;38631;47.572;10.704;2022-11-20T05:41:11;92089.22;;;2.52;100.00
52735;BME280;38631;47.572;10.704;2022-11-20T05:43:38;92095.53;;;2.41;100.00
52735;BME280;38631;47.572;10.704;2022-11-20T05:46:05;92089.81;;;2.28;100.00
52735;BME280;38631;47.572;10.704;2022-11-20T05:48:31;92088.72;;;2.45;100.00
52735;BME280;38631;47.572;10.704;2022-11-20T05:50:58;92090.31;;;2.35;100.00
52735;BME280;38631;47.572;10.704;2022-11-20T05:53:24;92088.22;;;2.32;100.00
52735;BME280;38631;47.572;10.704;2022-11-20T05:56:00;92096.38;;;2.26;100.00
52735;BME280;38631;47.572;10.704;2022-11-20T05:58:26;92101.00;;;2.54;100.00
52735;BME280;38631;47.572;10.704;2022-11-20T06:00:52;92104.66;;;2.69;100.00
52735;BME280;38631;47.572;10.704;2022-11-20T06:03:17;92110.94;;;2.63;100.00
52735;BME280;38631;47.572;10.704;2022-11-20T06:05:42;92112.78;;;2.67;100.00
52735;BME280;38631;47.572;10.704;2022-11-20T06:08:08;92109.63;;;2.65;100.00
52735;BME280;38631;47.572;10.704;2022-11-20T06:10:33;92101.28;;;2.48;100.00
52735;BME280;38631;47.572;10.704;2022-11-20T06:12:58;92110.44;;;2.55;100.00
52735;BME280;38631;47.572;10.704;2022-11-20T06:15:24;92113.88;;;2.30;100.00
52735;BME280;38631;47.572;10.704;2022-11-20T06:17:54;92110.50;;;2.30;100.00
52735;BME280;38631;47.572;10.704;2022-11-20T06:20:20;92106.50;;;2.53;100.00
52735;BME280;38631;47.572;10.704;2022-11-20T06:22:45;92111.72;;;2.63;100.00
52735;BME280;38631;47.572;10.704;2022-11-20T06:25:11;92107.59;;;2.36;100.00
52735;BME280;38631;47.572;10.704;2022-11-20T06:27:36;92108.16;;;2.08;100.00
52735;BME280;38631;47.572;10.704;2022-11-20T06:30:02;92103.94;;;2.27;100.00
52735;BME280;38631;47.572;10.704;2022-11-20T06:32:28;92108.38;;;2.42;100.00
52735;BME280;38631;47.572;10.704;2022-11-20T06:34:53;92117.78;;;2.43;100.00
52735;BME280;38631;47.572;10.704;2022-11-20T06:37:19;92107.06;;;2.45;100.00
52735;BME280;38631;47.572;10.704;2022-11-20T06:39:44;92115.44;;;2.52;100.00
52735;BME280;38631;47.572;10.704;2022-11-20T06:42:09;92115.94;;;2.64;100.00
52735;BME280;38631;47.572;10.704;2022-11-20T06:44:35;92114.38;;;2.58;100.00
52735;BME280;38631;47.572;10.704;2022-11-20T06:47:00;92120.97;;;2.35;100.00
52735;BME280;38631;47.572;10.704;2022-11-20T06:49:26;92121.19;;;2.54;100.00
52735;BME280;38631;47.572;10.704;2022-11-20T06:51:51;92132.97;;;2.67;100.00
52735;BME280;38631;47.572;10.704;2022-11-20T06:54:16;92135.81;;;2.70;100.00
52735;BME280;38631;47.572;10.704;2022-11-20T06:56:42;92142.38;;;2.73;100.00
52735;BME280;38631;47.572;10.704;2022-11-20T06:59:11;92138.50;;;2.45;100.00
52735;BME280;38631;47.572;10.704;2022-11-20T07:01:36;92142.91;;;2.65;100.00
52735;BME280;38631;47.572;10.704;2022-11-20T07:04:02;92139.75;;;2.78;100.00
52735;BME280;38631;47.572;10.704;2022-11-20T07:06:28;92147.88;;;2.76;100.00
52735;BME280;38631;47.572;10.704;2022-11-20T07:08:53;92146.38;;;2.45;100.00
52735;BME280;38631;47.572;10.704;2022-11-20T07:11:19;92143.16;;;2.73;100.00
52735;BME280;38631;47.572;10.704;2022-11-20T07:13:44;92148.41;;;2.73;100.00
52735;BME280;38631;47.572;10.704;2022-11-20T07:16:09;92150.31;;;2.37;100.00
52735;BME280;38631;47.572;10.704;2022-11-20T07:18:35;92153.44;;;2.44;100.00
52735;BME280;38631;47.572;10.704;2022-11-20T07:21:05;92161.53;;;2.58;100.00
52735;BME280;38631;47.572;10.704;2022-11-20T07:23:31;92161.03;;;2.56;100.00
52735;BME280;38631;47.572;10.704;2022-11-20T07:25:56;92155.47;;;2.78;100.00
52735;BME280;38631;47.572;10.704;2022-11-20T07:28:22;92156.00;;;2.75;100.00
52735;BME280;38631;47.572;10.704;2022-11-20T07:30:53;92149.19;;;2.84;100.00
52735;BME280;38631;47.572;10.704;2022-11-20T07:33:19;92150.81;;;2.44;100.00
52735;BME280;38631;47.572;10.704;2022-11-20T07:35:44;92164.91;;;2.79;100.00
52735;BME280;38631;47.572;10.704;2022-11-20T07:38:10;92153.88;;;2.87;100.00
52735;BME280;38631;47.572;10.704;2022-11-20T07:40:35;92154.69;;;2.77;100.00
52735;BME280;38631;47.572;10.704;2022-11-20T07:43:01;92156.47;;;2.92;100.00
52735;BME280;38631;47.572;10.704;2022-11-20T07:45:26;92157.81;;;2.90;100.00
52735;BME280;38631;47.572;10.704;2022-11-20T07:47:51;92159.88;;;2.98;100.00
52735;BME280;38631;47.572;10.704;2022-11-20T07:50:17;92157.50;;;3.07;100.00
52735;BME280;38631;47.572;10.704;2022-11-20T07:52:43;92156.41;;;3.13;100.00
52735;BME280;38631;47.572;10.704;2022-11-20T07:55:09;92159.31;;;3.16;100.00
52735;BME280;38631;47.572;10.704;2022-11-20T07:57:35;92160.91;;;3.07;100.00
52735;BME280;38631;47.572;10.704;2022-11-20T08:00:01;92161.47;;;2.99;100.00
52735;BME280;38631;47.572;10.704;2022-11-20T08:02:26;92168.00;;;3.07;100.00
52735;BME280;38631;47.572;10.704;2022-11-20T08:04:51;92166.69;;;3.04;100.00
52735;BME280;38631;47.572;10.704;2022-11-20T08:07:17;92169.28;;;3.14;94.86
52735;BME280;38631;47.572;10.704;2022-11-20T08:09:42;92169.22;;;3.24;88.92
52735;BME280;38631;47.572;10.704;2022-11-20T08:12:08;92169.75;;;3.27;86.63
52735;BME280;38631;47.572;10.704;2022-11-20T08:14:52;92167.38;;;3.25;84.88
52735;BME280;38631;47.572;10.704;2022-11-20T08:17:20;92167.66;;;3.29;87.35
52735;BME280;38631;47.572;10.704;2022-11-20T08:19:45;92166.34;;;3.26;89.11
52735;BME280;38631;47.572;10.704;2022-11-20T08:22:11;92167.94;;;3.22;93.12
52735;BME280;38631;47.572;10.704;2022-11-20T08:24:36;92155.91;;;3.06;92.11
52735;BME280;38631;47.572;10.704;2022-11-20T08:27:01;92167.13;;;3.27;90.49
52735;BME280;38631;47.572;10.704;2022-11-20T08:29:27;92166.31;;;3.36;90.11
52735;BME280;38631;47.572;10.704;2022-11-20T08:31:52;92163.41;;;3.38;87.75
52735;BME280;38631;47.572;10.704;2022-11-20T08:34:18;92170.44;;;3.47;88.89
52735;BME280;38631;47.572;10.704;2022-11-20T08:36:43;92162.81;;;3.46;86.95
52735;BME280;38631;47.572;10.704;2022-11-20T08:39:11;92163.28;;;3.58;85.30
52735;BME280;38631;47.572;10.704;2022-11-20T08:41:37;92161.00;;;3.46;85.41
52735;BME280;38631;47.572;10.704;2022-11-20T08:44:04;92150.75;;;3.50;85.68
52735;BME280;38631;47.572;10.704;2022-11-20T08:46:39;92158.00;;;3.63;85.63
52735;BME280;38631;47.572;10.704;2022-11-20T08:49:08;92154.28;;;3.75;85.29
52735;BME280;38631;47.572;10.704;2022-11-20T08:51:33;92155.00;;;3.85;84.21
52735;BME280;38631;47.572;10.704;2022-11-20T08:53:59;92149.13;;;4.04;84.51
52735;BME280;38631;47.572;10.704;2022-11-20T08:56:24;92145.84;;;4.17;83.02
52735;BME280;38631;47.572;10.704;2022-11-20T08:58:51;92153.97;;;4.21;83.88
52735;BME280;38631;47.572;10.704;2022-11-20T09:01:17;92145.09;;;4.17;83.30
52735;BME280;38631;47.572;10.704;2022-11-20T09:03:43;92139.78;;;4.22;81.75
52735;BME280;38631;47.572;10.704;2022-11-20T09:06:08;92149.75;;;4.25;81.60
52735;BME280;38631;47.572;10.704;2022-11-20T09:08:34;92143.44;;;4.21;81.12
52735;BME280;38631;47.572;10.704;2022-11-20T09:11:01;92141.94;;;4.15;80.21
52735;BME280;38631;47.572;10.704;2022-11-20T09:13:28;92142.19;;;4.13;83.50
52735;BME280;38631;47.572;10.704;2022-11-20T09:15:58;92147.19;;;4.15;84.03
52735;BME280;38631;47.572;10.704;2022-11-20T09:18:24;92145.03;;;4.22;83.63
52735;BME280;38631;47.572;10.704;2022-11-20T09:20:50;92146.88;;;4.50;78.53
52735;BME280;38631;47.572;10.704;2022-11-20T09:23:16;92137.19;;;4.75;75.52
52735;BME280;38631;47.572;10.704;2022-11-20T09:25:42;92140.16;;;4.68;76.79
52735;BME280;38631;47.572;10.704;2022-11-20T09:28:08;92146.66;;;4.76;76.16
52735;BME280;38631;47.572;10.704;2022-11-20T09:30:33;92154.03;;;4.74;78.32
52735;BME280;38631;47.572;10.704;2022-11-20T09:32:58;92139.69;;;4.61;77.05
52735;BME280;38631;47.572;10.704;2022-11-20T09:35:24;92137.34;;;4.84;75.78
52735;BME280;38631;47.572;10.704;2022-11-20T09:37:49;92140.13;;;4.97;75.56
52735;BME280;38631;47.572;10.704;2022-11-20T09:40:26;92136.47;;;4.93;76.53
52735;BME280;38631;47.572;10.704;2022-11-20T09:43:30;92127.25;;;4.72;80.82
52735;BME280;38631;47.572;10.704;2022-11-20T09:51:46;92126.06;;;4.59;76.85
52735;BME280;38631;47.572;10.704;2022-11-20T09:54:17;92123.59;;;4.68;80.28
52735;BME280;38631;47.572;10.704;2022-11-20T09:56:50;92119.75;;;4.84;77.82
52735;BME280;38631;47.572;10.704;2022-11-20T09:59:39;92120.34;;;5.00;76.10
52735;BME280;38631;47.572;10.704;2022-11-20T10:02:16;92119.75;;;4.84;76.48
52735;BME280;38631;47.572;10.704;2022-11-20T10:04:52;92114.38;;;4.94;75.95
52735;BME280;38631;47.572;10.704;2022-11-20T10:07:27;92108.09;;;4.90;75.42
52735;BME280;38631;47.572;10.704;2022-11-20T10:09:55;92112.75;;;4.98;76.31
52735;BME280;38631;47.572;10.704;2022-11-20T10:12:33;92114.41;;;5.13;74.38
52735;BME280;38631;47.572;10.704;2022-11-20T10:20:40;92107.69;;;5.26;69.19
52735;BME280;38631;47.572;10.704;2022-11-20T10:26:02;92106.00;;;5.35;68.63
52735;BME280;38631;47.572;10.704;2022-11-20T10:28:46;92101.44;;;5.22;70.37
52735;BME280;38631;47.572;10.704;2022-11-20T10:34:01;92100.84;;;5.25;72.56
52735;BME280;38631;47.572;10.704;2022-11-20T10:36:39;92100.69;;;5.16;74.65
52735;BME280;38631;47.572;10.704;2022-11-20T10:39:16;92095.66;;;5.39;70.18
52735;BME280;38631;47.572;10.704;2022-11-20T10:41:44;92103.63;;;5.34;71.91
52735;BME280;38631;47.572;10.704;2022-11-20T10:44:18;92105.22;;;5.35;74.59
52735;BME280;38631;47.572;10.704;2022-11-20T10:47:04;92105.84;;;5.27;76.31
52735;BME280;38631;47.572;10.704;2022-11-20T10:49:31;92116.13;;;5.23;72.32
52735;BME280;38631;47.572;10.704;2022-11-20T11:00:21;92111.50;;;5.15;69.28
52735;BME280;38631;47.572;10.704;2022-11-20T11:02:54;92112.56;;;5.14;73.69
52735;BME280;38631;47.572;10.704;2022-11-20T11:07:46;92116.72;;;5.20;70.46
52735;BME280;38631;47.572;10.704;2022-11-20T11:10:24;92105.09;;;5.21;67.44
52735;BME280;38631;47.572;10.704;2022-11-20T11:12:49;92103.75;;;5.24;68.87
52735;BME280;38631;47.572;10.704;2022-11-20T11:15:29;92097.88;;;5.32;69.86
52735;BME280;38631;47.572;10.704;2022-11-20T11:17:55;92097.59;;;5.33;69.91
52735;BME280;38631;47.572;10.704;2022-11-20T11:20:24;92103.22;;;5.27;72.47
52735;BME280;38631;47.572;10.704;2022-11-20T11:22:55;92092.00;;;5.16;67.67
52735;BME280;38631;47.572;10.704;2022-11-20T11:25:36;92102.03;;;5.14;69.18
52735;BME280;38631;47.572;10.704;2022-11-20T11:30:28;92097.47;;;5.01;72.42
52735;BME280;38631;47.572;10.704;2022-11-20T11:33:06;92091.09;;;5.07;70.11
52735;BME280;38631;47.572;10.704;2022-11-20T11:35:32;92091.03;;;5.12;69.93
52735;BME280;38631;47.572;10.704;2022-11-20T11:38:11;92097.56;;;5.14;68.77
52735;BME280;38631;47.572;10.704;2022-11-20T11:40:37;92093.59;;;5.17;70.84
52735;BME280;38631;47.572;10.704;2022-11-20T11:43:17;92093.03;;;5.39;68.70
52735;BME280;38631;47.572;10.704;2022-11-20T11:46:04;92085.56;;;5.46;66.56
52735;BME280;38631;47.572;10.704;2022-11-20T11:48:34;92085.94;;;5.58;69.42
52735;BME280;38631;47.572;10.704;2022-11-20T11:50:59;92084.22;;;5.68;66.90
52735;BME280;38631;47.572;10.704;2022-11-20T11:53:26;92086.56;;;5.69;65.08
52735;BME280;38631;47.572;10.704;2022-11-20T11:56:00;92076.91;;;5.65;65.51
52735;BME280;38631;47.572;10.704;2022-11-20T11:58:47;92081.94;;;5.61;65.40
52735;BME280;38631;47.572;10.704;2022-11-20T12:01:29;92077.75;;;5.60;66.27
52735;BME280;38631;47.572;10.704;2022-11-20T12:04:19;92073.53;;;5.59;66.05
52735;BME280;38631;47.572;10.704;2022-11-20T12:06:51;92069.84;;;5.60;67.07
52735;BME280;38631;47.572;10.704;2022-11-20T12:09:21;92074.28;;;5.65;67.81
52735;BME280;38631;47.572;10.704;2022-11-20T12:12:23;92064.09;;;5.58;67.36
52735;BME280;38631;47.572;10.704;2022-11-20T12:14:50;92054.31;;;5.58;63.98
52735;BME280;38631;47.572;10.704;2022-11-20T12:17:18;92056.19;;;5.58;65.43
52735;BME280;38631;47.572;10.704;2022-11-20T12:19:43;92056.19;;;5.58;66.45
52735;BME280;38631;47.572;10.704;2022-11-20T12:22:33;92049.22;;;5.67;67.79
52735;BME280;38631;47.572;10.704;2022-11-20T12:25:03;92038.38;;;5.69;68.70
52735;BME280;38631;47.572;10.704;2022-11-20T12:28:03;92040.38;;;5.96;66.28
52735;BME280;38631;47.572;10.704;2022-11-20T12:30:41;92047.19;;;5.97;67.95
52735;BME280;38631;47.572;10.704;2022-11-20T12:33:54;92039.31;;;6.11;65.94
52735;BME280;38631;47.572;10.704;2022-11-20T12:39:51;92028.50;;;6.12;62.37
52735;BME280;38631;47.572;10.704;2022-11-20T12:51:30;92025.81;;;5.98;65.54
52735;BME280;38631;47.572;10.704;2022-11-20T12:54:25;92023.88;;;6.04;62.95
52735;BME280;38631;47.572;10.704;2022-11-20T13:05:55;92017.66;;;6.00;65.76
52735;BME280;38631;47.572;10.704;2022-11-20T13:08:25;92012.19;;;5.91;62.07
52735;BME280;38631;47.572;10.704;2022-11-20T13:13:35;92007.31;;;5.84;62.83
52735;BME280;38631;47.572;10.704;2022-11-20T13:16:12;92003.81;;;5.89;62.81
52735;BME280;38631;47.572;10.704;2022-11-20T13:18:41;92000.88;;;5.91;64.83
52735;BME280;38631;47.572;10.704;2022-11-20T13:21:39;91999.13;;;5.86;62.22
52735;BME280;38631;47.572;10.704;2022-11-20T13:24:28;91992.78;;;5.87;62.86
52735;BME280;38631;47.572;10.704;2022-11-20T13:29:26;91989.66;;;5.85;64.63
52735;BME280;38631;47.572;10.704;2022-11-20T13:32:04;91992.56;;;5.83;62.41
52735;BME280;38631;47.572;10.704;2022-11-20T13:34:31;91988.97;;;5.79;63.70
52735;BME280;38631;47.572;10.704;2022-11-20T13:36:58;91970.03;;;5.77;63.13
52735;BME280;38631;47.572;10.704;2022-11-20T13:39:32;91978.44;;;5.79;63.88
52735;BME280;38631;47.572;10.704;2022-11-20T13:42:00;91980.84;;;5.76;64.85
52735;BME280;38631;47.572;10.704;2022-11-20T13:44:34;91972.25;;;5.70;64.46
52735;BME280;38631;47.572;10.704;2022-11-20T13:47:03;91978.28;;;5.71;63.80
52735;BME280;38631;47.572;10.704;2022-11-20T13:49:39;91966.91;;;5.75;63.68
52735;BME280;38631;47.572;10.704;2022-11-20T13:55:19;91973.94;;;5.80;64.16
52735;BME280;38631;47.572;10.704;2022-11-20T14:00:48;91962.75;;;5.55;68.74
52735;BME280;38631;47.572;10.704;2022-11-20T14:03:19;91967.38;;;5.45;70.26
52735;BME280;38631;47.572;10.704;2022-11-20T14:05:50;91966.88;;;5.43;72.23
52735;BME280;38631;47.572;10.704;2022-11-20T14:08:40;91963.00;;;5.54;73.73
52735;BME280;38631;47.572;10.704;2022-11-20T14:16:22;91974.28;;;5.59;71.31
52735;BME280;38631;47.572;10.704;2022-11-20T14:18:48;91974.53;;;5.58;71.33